createdAt,value
2018-01-17T00:01:09.828Z,6.10
2018-01-17T00:03:37.452Z,6.10
2018-01-17T00:06:05.049Z,6.10
2018-01-17T00:08:33.436Z,6.10
2018-01-17T00:11:01.796Z,6.00
2018-01-17T00:13:30.194Z,6.00
2018-01-17T00:15:58.540Z,6.00
2018-01-17T00:18:26.129Z,6.00
2018-01-17T00:20:54.509Z,6.00
2018-01-17T00:23:22.869Z,6.00
2018-01-17T00:25:51.256Z,6.00
2018-01-17T00:28:19.604Z,6.00
2018-01-17T00:30:47.187Z,6.00
2018-01-17T00:33:14.820Z,6.00
2018-01-17T00:35:42.421Z,6.00
2018-01-17T00:38:10.808Z,6.00
2018-01-17T00:40:39.159Z,6.00
2018-01-17T00:43:06.759Z,5.90
2018-01-17T00:45:34.364Z,6.00
2018-01-17T00:48:01.951Z,6.00
2018-01-17T00:50:30.341Z,5.90
2018-01-17T00:52:58.710Z,5.90
2018-01-17T00:55:27.059Z,5.90
2018-01-17T00:57:54.679Z,5.90
2018-01-17T01:00:22.297Z,5.90
2018-01-17T01:02:49.922Z,6.00
2018-01-17T01:05:17.511Z,6.00
2018-01-17T01:07:45.892Z,6.00
2018-01-17T01:10:13.510Z,5.90
2018-01-17T01:12:41.105Z,6.00
2018-01-17T01:15:08.733Z,6.00
2018-01-17T01:17:36.329Z,6.10
2018-01-17T01:20:05.425Z,6.00
2018-01-17T01:22:33.828Z,6.10
2018-01-17T01:25:02.233Z,6.10
2018-01-17T01:27:29.848Z,6.00
2018-01-17T01:29:57.440Z,6.00
2018-01-17T01:32:25.833Z,6.10
2018-01-17T01:34:53.418Z,6.00
2018-01-17T01:37:21.004Z,6.10
2018-01-17T01:39:48.619Z,6.10
2018-01-17T01:42:16.201Z,6.00
2018-01-17T01:44:43.816Z,6.10
2018-01-17T01:47:12.176Z,6.20
2018-01-17T01:49:39.816Z,6.10
2018-01-17T01:52:07.404Z,6.10
2018-01-17T01:54:35.779Z,6.20
2018-01-17T01:57:03.369Z,6.10
2018-01-17T01:59:30.990Z,6.20
2018-01-17T02:02:00.089Z,6.20
2018-01-17T02:04:28.468Z,6.20
2018-01-17T02:06:56.812Z,6.20
2018-01-17T02:09:24.438Z,6.20
2018-01-17T02:11:52.035Z,6.30
2018-01-17T02:14:19.652Z,6.30
2018-01-17T02:16:48.012Z,6.30
2018-01-17T02:19:16.424Z,6.30
2018-01-17T02:21:44.004Z,6.30
2018-01-17T02:24:11.587Z,6.30
2018-01-17T02:26:39.206Z,6.30
2018-01-17T02:29:06.798Z,6.30
2018-01-17T02:31:34.409Z,6.30
2018-01-17T02:34:02.763Z,6.30
2018-01-17T02:36:30.388Z,6.20
2018-01-17T02:38:57.993Z,6.30
2018-01-17T02:41:25.609Z,6.30
2018-01-17T02:43:53.197Z,6.30
2018-01-17T02:46:20.813Z,6.30
2018-01-17T02:48:48.404Z,6.30
2018-01-17T02:51:16.027Z,6.30
2018-01-17T02:53:43.622Z,6.30
2018-01-17T02:56:11.248Z,6.20
2018-01-17T02:58:38.846Z,6.20
2018-01-17T03:01:06.440Z,6.20
2018-01-17T03:03:34.056Z,6.30
2018-01-17T03:06:01.652Z,6.20
2018-01-17T03:08:29.265Z,6.30
2018-01-17T03:10:56.860Z,6.20
2018-01-17T03:13:25.253Z,6.30
2018-01-17T03:15:53.602Z,6.30
2018-01-17T03:18:21.217Z,6.20
2018-01-17T03:20:49.584Z,6.30
2018-01-17T03:23:17.972Z,6.30
2018-01-17T03:25:46.332Z,6.30
2018-01-17T03:28:13.945Z,6.20
2018-01-17T03:30:41.534Z,6.20
2018-01-17T03:33:09.168Z,6.20
2018-01-17T03:35:36.748Z,6.20
2018-01-17T03:38:04.340Z,6.20
2018-01-17T03:40:32.725Z,6.20
2018-01-17T03:43:01.080Z,6.20
2018-01-17T03:45:29.464Z,6.10
2018-01-17T03:47:57.065Z,6.20
2018-01-17T03:50:24.695Z,6.20
2018-01-17T03:52:52.299Z,6.20
2018-01-17T03:55:19.900Z,6.20
2018-01-17T03:57:48.271Z,6.20
2018-01-17T04:00:16.673Z,6.20
2018-01-17T04:02:45.315Z,6.20
2018-01-17T04:05:13.010Z,6.10
2018-01-17T04:07:40.628Z,6.20
2018-01-17T04:10:08.225Z,6.20
2018-01-17T04:12:36.882Z,6.20
2018-01-17T04:15:04.498Z,6.10
2018-01-17T04:17:32.884Z,6.20
2018-01-17T04:20:00.480Z,6.10
2018-01-17T04:22:28.074Z,6.10
2018-01-17T04:24:56.449Z,6.10
2018-01-17T04:27:25.544Z,6.10
2018-01-17T04:29:53.163Z,6.10
2018-01-17T04:32:20.752Z,6.10
2018-01-17T04:34:50.021Z,6.10
2018-01-17T04:37:17.625Z,6.10
2018-01-17T04:39:45.241Z,6.10
2018-01-17T04:42:12.824Z,6.10
2018-01-17T04:44:40.454Z,6.10
2018-01-17T04:47:08.046Z,6.10
2018-01-17T04:49:35.633Z,6.10
2018-01-17T04:52:03.247Z,6.10
2018-01-17T04:54:30.854Z,6.10
2018-01-17T04:56:59.989Z,6.00
2018-01-17T04:59:27.576Z,6.00
2018-01-17T05:01:55.201Z,6.00
2018-01-17T05:04:23.551Z,6.00
2018-01-17T05:06:51.144Z,5.90
2018-01-17T05:09:18.765Z,6.00
2018-01-17T05:11:46.352Z,6.00
2018-01-17T05:14:14.736Z,5.90
2018-01-17T05:16:43.096Z,5.90
2018-01-17T05:19:10.704Z,5.90
2018-01-17T05:21:38.284Z,5.90
2018-01-17T05:24:05.904Z,5.90
2018-01-17T05:26:34.280Z,5.90
2018-01-17T05:29:01.912Z,5.80
2018-01-17T05:31:30.269Z,5.90
2018-01-17T05:33:57.856Z,5.80
2018-01-17T05:36:25.477Z,5.90
2018-01-17T05:38:53.085Z,5.90
2018-01-17T05:41:21.472Z,5.90
2018-01-17T05:43:49.834Z,5.90
2018-01-17T05:46:17.453Z,5.90
2018-01-17T05:48:45.052Z,5.90
2018-01-17T05:51:12.670Z,5.90
2018-01-17T05:53:40.272Z,5.90
2018-01-17T05:56:07.898Z,6.00
2018-01-17T05:58:35.501Z,6.00
2018-01-17T06:01:03.092Z,6.00
2018-01-17T06:03:30.723Z,5.90
2018-01-17T06:05:59.158Z,5.90
2018-01-17T06:08:26.768Z,5.90
2018-01-17T06:10:55.124Z,6.00
2018-01-17T06:13:22.748Z,5.90
2018-01-17T06:15:50.344Z,6.00
2018-01-17T06:18:17.978Z,6.00
2018-01-17T06:20:45.585Z,6.00
2018-01-17T06:23:13.192Z,6.00
2018-01-17T06:25:40.782Z,6.00
2018-01-17T06:28:08.422Z,6.00
2018-01-17T06:30:36.013Z,6.00
2018-01-17T06:33:04.403Z,6.00
2018-01-17T06:35:31.994Z,5.90
2018-01-17T06:37:59.616Z,5.90
2018-01-17T06:40:27.207Z,5.90
2018-01-17T06:42:55.552Z,5.90
2018-01-17T06:45:23.957Z,5.90
2018-01-17T06:47:52.335Z,6.00
2018-01-17T06:50:20.720Z,6.00
2018-01-17T06:52:49.064Z,6.00
2018-01-17T06:55:16.684Z,5.90
2018-01-17T06:57:44.264Z,5.90
2018-01-17T07:00:11.882Z,5.90
2018-01-17T07:02:40.249Z,5.80
2018-01-17T07:05:08.610Z,5.80
2018-01-17T07:07:36.224Z,5.80
2018-01-17T07:10:03.872Z,5.90
2018-01-17T07:12:32.240Z,6.00
2018-01-17T07:15:00.602Z,6.00
2018-01-17T07:17:29.036Z,6.00
2018-01-17T07:19:56.621Z,5.90
2018-01-17T07:22:24.249Z,5.90
2018-01-17T07:24:51.836Z,5.90
2018-01-17T07:27:19.458Z,5.90
2018-01-17T07:29:47.049Z,5.90
2018-01-17T07:32:14.681Z,6.00
2018-01-17T07:34:42.268Z,6.00
2018-01-17T07:37:09.856Z,6.00
2018-01-17T07:39:37.473Z,6.00
2018-01-17T07:42:05.061Z,6.00
2018-01-17T07:44:32.667Z,5.90
2018-01-17T07:47:00.252Z,5.90
2018-01-17T07:49:27.864Z,5.90
2018-01-17T07:51:56.224Z,5.90
2018-01-17T07:54:25.356Z,5.90
2018-01-17T07:56:53.713Z,5.90
2018-01-17T07:59:22.103Z,6.00
2018-01-17T08:01:50.462Z,6.00
2018-01-17T08:04:18.068Z,5.90
2018-01-17T08:06:45.648Z,6.00
2018-01-17T08:09:13.317Z,6.00
2018-01-17T08:11:40.895Z,6.00
2018-01-17T08:14:08.539Z,6.00
2018-01-17T08:16:36.131Z,6.00
2018-01-17T08:19:03.757Z,6.10
2018-01-17T08:21:31.373Z,6.00
2018-01-17T08:23:59.726Z,6.10
2018-01-17T08:26:28.174Z,6.10
2018-01-17T08:28:55.756Z,6.00
2018-01-17T08:31:23.376Z,6.10
2018-01-17T08:33:50.976Z,6.10
2018-01-17T08:36:18.587Z,6.10
2018-01-17T08:38:46.306Z,6.10
2018-01-17T08:41:13.920Z,6.10
2018-01-17T08:43:41.533Z,6.00
2018-01-17T08:46:09.152Z,6.00
2018-01-17T08:48:36.753Z,6.00
2018-01-17T08:51:04.364Z,6.00
2018-01-17T08:53:31.956Z,5.90
2018-01-17T08:55:59.629Z,5.90
2018-01-17T08:58:27.988Z,5.80
2018-01-17T09:00:55.608Z,5.80
2018-01-17T09:03:23.961Z,5.80
2018-01-17T09:05:51.559Z,5.70
2018-01-17T09:08:19.172Z,5.70
2018-01-17T09:10:48.286Z,5.60
2018-01-17T09:13:16.660Z,5.70
2018-01-17T09:15:44.252Z,5.60
2018-01-17T09:18:11.873Z,5.70
2018-01-17T09:20:39.457Z,5.60
2018-01-17T09:23:07.845Z,5.60
2018-01-17T09:25:35.444Z,5.60
2018-01-17T09:28:03.058Z,5.70
2018-01-17T09:30:31.420Z,5.60
2018-01-17T09:32:59.064Z,5.60
2018-01-17T09:35:26.653Z,5.60
2018-01-17T09:37:55.002Z,5.60
2018-01-17T09:40:22.620Z,5.60
2018-01-17T09:42:50.231Z,5.70
2018-01-17T09:45:17.861Z,5.70
2018-01-17T09:47:45.448Z,5.70
2018-01-17T09:50:13.060Z,5.70
2018-01-17T09:52:40.640Z,5.70
2018-01-17T09:55:08.252Z,5.70
2018-01-17T09:57:36.605Z,5.70
2018-01-17T10:00:04.209Z,5.60
2018-01-17T10:02:31.829Z,5.70
2018-01-17T10:05:00.941Z,5.70
2018-01-17T10:07:28.560Z,5.70
2018-01-17T10:09:56.140Z,5.80
2018-01-17T10:12:23.760Z,5.80
2018-01-17T10:14:51.484Z,5.90
2018-01-17T10:17:20.014Z,5.80
2018-01-17T10:19:47.600Z,5.80
2018-01-17T10:22:15.185Z,5.80
2018-01-17T10:24:42.803Z,5.80
2018-01-17T10:27:10.396Z,5.90
2018-01-17T10:29:38.026Z,5.90
2018-01-17T10:32:05.628Z,5.90
2018-01-17T10:34:33.254Z,5.80
2018-01-17T10:37:00.840Z,5.90
2018-01-17T10:39:28.897Z,5.90
2018-01-17T10:41:56.484Z,5.90
2018-01-17T10:44:25.068Z,6.00
2018-01-17T10:46:53.416Z,6.00
2018-01-17T10:49:21.076Z,6.00
2018-01-17T10:51:48.668Z,6.00
2018-01-17T10:54:17.024Z,6.00
2018-01-17T10:56:44.639Z,6.00
2018-01-17T10:59:12.228Z,6.10
2018-01-17T11:01:39.849Z,6.10
2018-01-17T11:04:07.461Z,6.10
2018-01-17T11:06:35.107Z,6.10
2018-01-17T11:09:02.725Z,6.10
2018-01-17T11:11:31.088Z,6.10
2018-01-17T11:13:59.471Z,6.10
2018-01-17T11:16:27.890Z,6.10
2018-01-17T11:18:55.528Z,6.10
2018-01-17T11:21:23.113Z,6.10
2018-01-17T11:23:50.788Z,6.20
2018-01-17T11:26:18.372Z,6.20
2018-01-17T11:28:47.129Z,6.20
2018-01-17T11:31:14.720Z,6.20
2018-01-17T11:33:42.355Z,6.20
2018-01-17T11:36:09.969Z,6.20
2018-01-17T11:38:38.376Z,6.30
2018-01-17T11:41:05.965Z,6.20
2018-01-17T11:43:33.560Z,6.30
2018-01-17T11:46:01.991Z,6.30
2018-01-17T11:48:29.576Z,6.30
2018-01-17T11:50:57.188Z,6.30
2018-01-17T11:53:24.783Z,6.30
2018-01-17T11:55:52.397Z,6.30
2018-01-17T11:58:20.753Z,6.30
2018-01-17T12:00:48.370Z,6.30
2018-01-17T12:03:15.959Z,6.30
2018-01-17T12:05:44.336Z,6.40
2018-01-17T12:08:13.440Z,6.40
2018-01-17T12:10:41.061Z,6.40
2018-01-17T12:13:08.645Z,6.50
2018-01-17T12:15:36.234Z,6.50
2018-01-17T12:18:04.617Z,6.50
2018-01-17T12:20:33.049Z,6.50
2018-01-17T12:23:00.714Z,6.40
2018-01-17T12:25:28.308Z,6.50
2018-01-17T12:27:55.928Z,6.60
2018-01-17T12:30:23.517Z,6.60
2018-01-17T12:32:51.146Z,6.70
2018-01-17T12:35:18.746Z,6.70
2018-01-17T12:37:47.140Z,6.70
2018-01-17T12:40:15.492Z,6.70
2018-01-17T12:42:43.071Z,6.60
2018-01-17T12:45:10.702Z,6.70
2018-01-17T12:47:38.289Z,6.70
2018-01-17T12:50:05.904Z,6.70
2018-01-17T12:52:33.500Z,6.80
2018-01-17T12:55:01.133Z,6.80
2018-01-17T12:57:28.801Z,6.90
2018-01-17T12:59:56.420Z,6.90
2018-01-17T13:02:24.021Z,6.90
2018-01-17T13:04:51.640Z,6.90
2018-01-17T13:07:19.992Z,7.00
2018-01-17T13:09:47.586Z,6.90
2018-01-17T13:12:15.201Z,7.00
2018-01-17T13:14:42.780Z,7.10
2018-01-17T13:17:10.403Z,7.10
2018-01-17T13:19:37.994Z,7.10
2018-01-17T13:22:05.613Z,7.10
2018-01-17T13:24:33.244Z,7.10
2018-01-17T13:27:01.624Z,7.10
2018-01-17T13:29:29.245Z,7.10
2018-01-17T13:31:58.385Z,7.10
2018-01-17T13:34:25.976Z,7.10
2018-01-17T13:36:53.566Z,7.10
2018-01-17T13:39:21.198Z,7.10
2018-01-17T13:41:48.812Z,7.00
2018-01-17T13:44:17.958Z,7.10
2018-01-17T13:46:45.628Z,7.10
2018-01-17T13:49:13.703Z,7.10
2018-01-17T13:51:41.312Z,7.10
2018-01-17T13:54:09.702Z,7.20
2018-01-17T13:56:37.317Z,7.20
2018-01-17T13:59:06.443Z,7.20
2018-01-17T14:01:34.828Z,7.20
2018-01-17T14:04:02.474Z,7.20
2018-01-17T14:06:30.844Z,7.30
2018-01-17T14:08:59.241Z,7.30
2018-01-17T14:11:27.596Z,7.30
2018-01-17T14:13:55.183Z,7.30
2018-01-17T14:16:24.168Z,7.30
2018-01-17T14:18:52.540Z,7.30
2018-01-17T14:21:20.916Z,7.30
2018-01-17T14:23:48.504Z,7.20
2018-01-17T14:26:16.121Z,7.30
2018-01-17T14:28:43.718Z,7.20
2018-01-17T14:31:11.344Z,7.20
2018-01-17T14:33:38.937Z,7.20
2018-01-17T14:36:07.288Z,7.20
2018-01-17T14:38:34.949Z,7.20
2018-01-17T14:41:02.551Z,7.30
2018-01-17T14:43:30.173Z,7.30
2018-01-17T14:45:58.532Z,7.30
2018-01-17T14:48:26.164Z,7.20
2018-01-17T14:50:53.844Z,7.30
2018-01-17T14:53:21.590Z,7.30
2018-01-17T14:55:49.209Z,7.30
2018-01-17T14:58:17.562Z,7.30
2018-01-17T15:00:45.185Z,7.20
2018-01-17T15:03:12.769Z,7.20
2018-01-17T15:05:40.388Z,7.20
2018-01-17T15:08:07.980Z,7.30
2018-01-17T15:10:36.281Z,7.20
2018-01-17T15:13:03.947Z,7.30
2018-01-17T15:15:32.414Z,7.30
2018-01-17T15:18:00.044Z,7.30
2018-01-17T15:20:27.648Z,7.30
2018-01-17T15:22:56.031Z,7.30
2018-01-17T15:25:25.143Z,7.20
2018-01-17T15:27:53.541Z,7.30
2018-01-17T15:30:21.144Z,7.20
2018-01-17T15:32:48.759Z,7.20
2018-01-17T15:35:17.111Z,7.20
2018-01-17T15:37:44.721Z,7.10
2018-01-17T15:40:12.343Z,7.20
2018-01-17T15:42:39.924Z,7.10
2018-01-17T15:45:07.544Z,7.20
2018-01-17T15:47:35.130Z,7.10
2018-01-17T15:50:03.511Z,7.10
2018-01-17T15:52:31.892Z,7.10
2018-01-17T15:55:00.251Z,7.00
2018-01-17T15:57:29.368Z,7.00
2018-01-17T15:59:57.728Z,7.00
2018-01-17T16:02:25.340Z,7.00
2018-01-17T16:04:52.941Z,7.00
2018-01-17T16:07:20.560Z,7.00
2018-01-17T16:09:48.230Z,6.90
2018-01-17T16:12:15.816Z,6.90
2018-01-17T16:14:43.428Z,6.90
2018-01-17T16:17:11.014Z,6.90
2018-01-17T16:19:38.634Z,6.80
2018-01-17T16:22:06.988Z,6.80
2018-01-17T16:24:34.606Z,6.80
2018-01-17T16:27:02.204Z,6.80
2018-01-17T16:29:29.829Z,6.90
2018-01-17T16:31:57.416Z,6.80
2018-01-17T16:34:25.008Z,6.80
2018-01-17T16:36:53.386Z,6.80
2018-01-17T16:39:21.736Z,6.80
2018-01-17T16:41:49.356Z,6.70
2018-01-17T16:44:16.945Z,6.70
2018-01-17T16:46:44.541Z,6.70
2018-01-17T16:49:12.922Z,6.70
2018-01-17T16:51:41.270Z,6.70
2018-01-17T16:54:08.884Z,6.70
2018-01-17T16:56:36.478Z,6.70
2018-01-17T16:59:04.098Z,6.70
2018-01-17T17:01:31.686Z,6.70
2018-01-17T17:03:59.299Z,6.70
2018-01-17T17:06:27.655Z,6.70
2018-01-17T17:08:55.282Z,6.60
2018-01-17T17:11:22.928Z,6.60
2018-01-17T17:13:50.549Z,6.60
2018-01-17T17:16:18.145Z,6.70
2018-01-17T17:18:45.755Z,6.70
2018-01-17T17:21:13.366Z,6.70
2018-01-17T17:23:40.953Z,6.60
2018-01-17T17:26:08.572Z,6.70
2018-01-17T17:28:36.927Z,6.60
2018-01-17T17:31:04.550Z,6.50
2018-01-17T17:33:32.137Z,6.60
2018-01-17T17:35:59.729Z,6.60
2018-01-17T17:38:28.114Z,6.50
2018-01-17T17:40:56.533Z,6.50
2018-01-17T17:43:24.149Z,6.40
2018-01-17T17:45:52.504Z,6.40
2018-01-17T17:48:21.629Z,6.40
2018-01-17T17:50:50.016Z,6.40
2018-01-17T17:53:17.637Z,6.40
2018-01-17T17:55:45.216Z,6.40
2018-01-17T17:58:13.592Z,6.40
2018-01-17T18:00:41.181Z,6.40
2018-01-17T18:03:08.799Z,6.40
2018-01-17T18:05:36.388Z,6.50
2018-01-17T18:08:04.831Z,6.40
2018-01-17T18:10:32.412Z,6.40
2018-01-17T18:13:00.035Z,6.40
2018-01-17T18:15:27.643Z,6.40
2018-01-17T18:17:55.992Z,6.30
2018-01-17T18:20:23.615Z,6.30
2018-01-17T18:22:51.240Z,6.30
2018-01-17T18:25:18.848Z,6.30
2018-01-17T18:27:46.440Z,6.30
2018-01-17T18:30:14.081Z,6.40
2018-01-17T18:32:41.692Z,6.30
2018-01-17T18:35:10.050Z,6.40
2018-01-17T18:37:38.445Z,6.40
2018-01-17T18:40:06.796Z,6.40
2018-01-17T18:42:35.917Z,6.30
2018-01-17T18:45:04.280Z,6.30
2018-01-17T18:47:31.892Z,6.30
2018-01-17T18:49:59.572Z,6.30
2018-01-17T18:52:27.352Z,6.30
2018-01-17T18:54:54.942Z,6.40
2018-01-17T18:57:23.322Z,6.40
2018-01-17T18:59:51.680Z,6.30
2018-01-17T19:02:19.296Z,6.30
2018-01-17T19:04:46.884Z,6.30
2018-01-17T19:07:14.644Z,6.30
2018-01-17T19:09:42.333Z,6.30
2018-01-17T19:12:09.921Z,6.40
2018-01-17T19:14:38.313Z,6.40
2018-01-17T19:17:05.908Z,6.30
2018-01-17T19:19:33.522Z,6.40
2018-01-17T19:22:01.890Z,6.40
2018-01-17T19:24:30.729Z,6.50
2018-01-17T19:26:58.612Z,6.40
2018-01-17T19:29:29.508Z,6.50
2018-01-17T19:31:58.946Z,6.40
2018-01-17T19:34:26.817Z,6.40
2018-01-17T19:36:54.687Z,6.40
2018-01-17T19:39:22.646Z,6.40
2018-01-17T19:41:50.514Z,6.50
2018-01-17T19:44:18.385Z,6.50
2018-01-17T19:46:46.315Z,6.40
2018-01-17T19:49:14.225Z,6.40
2018-01-17T19:51:42.184Z,6.40
2018-01-17T19:54:10.602Z,6.40
2018-01-17T19:56:39.256Z,6.40
2018-01-17T19:59:07.119Z,6.40
2018-01-17T20:01:35.084Z,6.40
2018-01-17T20:04:02.953Z,6.50
2018-01-17T20:06:30.923Z,6.50
2018-01-17T20:08:58.989Z,6.50
2018-01-17T20:11:26.860Z,6.50
2018-01-17T20:13:54.728Z,6.60
2018-01-17T20:16:22.594Z,6.60
2018-01-17T20:18:50.466Z,6.60
2018-01-17T20:21:18.327Z,6.60
2018-01-17T20:23:46.304Z,6.60
2018-01-17T20:26:14.166Z,6.60
2018-01-17T20:28:42.034Z,6.60
2018-01-17T20:31:11.143Z,6.60
2018-01-17T20:33:39.206Z,6.60
2018-01-17T20:36:06.809Z,6.60
2018-01-17T20:38:34.411Z,6.60
2018-01-17T20:41:02.395Z,6.60
2018-01-17T20:43:30.260Z,6.60
2018-01-17T20:45:57.872Z,6.60
2018-01-17T20:48:25.481Z,6.50
2018-01-17T20:50:53.108Z,6.50
2018-01-17T20:53:20.692Z,6.50
2018-01-17T20:55:48.329Z,6.50
2018-01-17T20:58:15.940Z,6.40
2018-01-17T21:00:43.547Z,6.40
2018-01-17T21:03:11.164Z,6.40
2018-01-17T21:05:38.759Z,6.40
2018-01-17T21:08:06.384Z,6.40
2018-01-17T21:10:34.512Z,6.40
2018-01-17T21:13:04.074Z,6.40
2018-01-17T21:15:32.472Z,6.40
2018-01-17T21:18:00.852Z,6.40
2018-01-17T21:20:28.442Z,6.30
2018-01-17T21:22:56.066Z,6.30
2018-01-17T21:25:24.422Z,6.30
2018-01-17T21:27:52.053Z,6.30
2018-01-17T21:30:19.641Z,6.40
2018-01-17T21:32:47.237Z,6.40
2018-01-17T21:35:14.856Z,6.40
2018-01-17T21:37:42.500Z,6.30
2018-01-17T21:40:10.117Z,6.30
2018-01-17T21:42:43.496Z,6.30
2018-01-17T21:45:17.609Z,6.30
2018-01-17T21:47:45.236Z,6.20
2018-01-17T21:50:12.850Z,6.30
2018-01-17T21:52:40.438Z,6.30
2018-01-17T21:55:08.048Z,6.20
2018-01-17T21:57:36.405Z,6.30
2018-01-17T22:00:04.020Z,6.20
2018-01-17T22:02:31.604Z,6.20
2018-01-17T22:04:59.228Z,6.30
2018-01-17T22:07:27.580Z,6.30
2018-01-17T22:09:55.227Z,6.20
2018-01-17T22:12:22.827Z,6.30
2018-01-17T22:14:51.217Z,6.30
2018-01-17T22:17:18.813Z,6.20
2018-01-17T22:19:46.433Z,6.20
2018-01-17T22:22:14.036Z,6.20
2018-01-17T22:24:41.622Z,6.30
2018-01-17T22:27:09.255Z,6.30
2018-01-17T22:29:36.841Z,6.30
2018-01-17T22:32:05.988Z,6.20
2018-01-17T22:34:33.584Z,6.20
2018-01-17T22:37:01.176Z,6.20
2018-01-17T22:39:29.564Z,6.20
2018-01-17T22:41:57.180Z,6.20
2018-01-17T22:44:24.793Z,6.30
2018-01-17T22:46:52.386Z,6.30
2018-01-17T22:49:20.016Z,6.20
2018-01-17T22:51:47.607Z,6.30
2018-01-17T22:54:15.191Z,6.30
2018-01-17T22:56:42.812Z,6.20
2018-01-17T22:59:10.392Z,6.30
2018-01-17T23:01:38.009Z,6.20
2018-01-17T23:04:05.615Z,6.20
2018-01-17T23:06:33.238Z,6.30
2018-01-17T23:09:00.865Z,6.30
2018-01-17T23:11:29.247Z,6.30
2018-01-17T23:13:57.600Z,6.30
2018-01-17T23:16:25.254Z,6.20
2018-01-17T23:18:52.846Z,6.30
2018-01-17T23:21:20.440Z,6.30
2018-01-17T23:23:48.081Z,6.30
2018-01-17T23:26:16.436Z,6.30
2018-01-17T23:28:44.849Z,6.30
2018-01-17T23:31:13.208Z,6.30
2018-01-17T23:33:40.834Z,6.30
2018-01-17T23:36:08.428Z,6.30
2018-01-17T23:38:36.008Z,6.30
2018-01-17T23:41:04.388Z,6.30
2018-01-17T23:43:31.972Z,6.30
2018-01-17T23:45:59.588Z,6.30
2018-01-17T23:48:27.944Z,6.20
2018-01-17T23:50:55.569Z,6.20
2018-01-17T23:53:23.156Z,6.20
2018-01-17T23:55:50.744Z,6.20
2018-01-17T23:58:18.356Z,6.20
